createdAt,value
2018-06-16T00:01:07.429Z,14.30
2018-06-16T00:03:36.337Z,13.33
2018-06-16T00:06:05.252Z,13.10
2018-06-16T00:08:33.964Z,12.73
2018-06-16T00:11:02.777Z,12.93
2018-06-16T00:13:31.714Z,13.57
2018-06-16T00:16:00.443Z,13.77
2018-06-16T00:18:29.271Z,13.37
2018-06-16T00:20:58.196Z,13.40
2018-06-16T00:23:27.124Z,11.87
2018-06-16T00:25:56.048Z,12.37
2018-06-16T00:28:24.945Z,12.37
2018-06-16T00:30:53.905Z,14.37
2018-06-16T00:33:22.933Z,12.97
2018-06-16T00:35:51.852Z,12.77
2018-06-16T00:38:20.786Z,13.20
2018-06-16T00:40:49.751Z,13.57
2018-06-16T00:43:18.693Z,14.00
2018-06-16T00:45:47.702Z,13.43
2018-06-16T00:48:16.682Z,13.80
2018-06-16T00:50:45.621Z,13.07
2018-06-16T00:53:14.560Z,14.80
2018-06-16T00:55:43.548Z,14.10
2018-06-16T00:58:12.468Z,14.07
2018-06-16T01:00:41.387Z,12.70
2018-06-16T01:03:10.305Z,13.57
2018-06-16T01:05:39.278Z,14.00
2018-06-16T01:08:08.448Z,13.30
2018-06-16T01:10:37.387Z,13.63
2018-06-16T01:13:06.301Z,12.47
2018-06-16T01:15:35.249Z,13.60
2018-06-16T01:18:04.200Z,13.60
2018-06-16T01:20:33.143Z,14.67
2018-06-16T01:23:02.111Z,13.80
2018-06-16T01:25:31.024Z,13.27
2018-06-16T01:27:59.985Z,14.23
2018-06-16T01:30:28.930Z,14.67
2018-06-16T01:32:57.859Z,14.97
2018-06-16T01:35:33.269Z,14.43
2018-06-16T01:38:02.170Z,13.93
2018-06-16T01:40:31.524Z,14.67
2018-06-16T01:43:00.471Z,15.60
2018-06-16T01:45:29.404Z,13.40
2018-06-16T01:47:58.304Z,14.27
2018-06-16T01:50:27.240Z,13.10
2018-06-16T01:52:56.185Z,15.13
2018-06-16T01:55:25.160Z,13.87
2018-06-16T01:57:54.116Z,15.10
2018-06-16T02:00:23.071Z,14.63
2018-06-16T02:02:51.989Z,16.63
2018-06-16T02:05:20.888Z,15.77
2018-06-16T02:07:49.852Z,14.40
2018-06-16T02:10:18.805Z,15.67
2018-06-16T02:12:47.726Z,16.77
2018-06-16T02:15:16.764Z,16.00
2018-06-16T02:17:45.692Z,15.90
2018-06-16T02:20:14.597Z,16.10
2018-06-16T02:22:43.536Z,15.90
2018-06-16T02:25:12.482Z,15.43
2018-06-16T02:27:41.409Z,16.10
2018-06-16T02:30:10.894Z,15.07
2018-06-16T02:32:39.808Z,15.10
2018-06-16T02:35:08.957Z,17.03
2018-06-16T02:37:37.664Z,15.03
2018-06-16T02:40:06.452Z,16.37
2018-06-16T02:42:35.375Z,16.63
2018-06-16T02:45:04.340Z,15.97
2018-06-16T02:47:33.246Z,17.80
2018-06-16T02:50:02.188Z,17.83
2018-06-16T02:52:31.087Z,17.50
2018-06-16T02:55:00.043Z,17.83
2018-06-16T02:57:28.920Z,18.03
2018-06-16T02:59:57.861Z,17.80
2018-06-16T03:02:26.540Z,17.73
2018-06-16T03:04:55.370Z,18.30
2018-06-16T03:07:24.340Z,17.70
2018-06-16T03:09:53.265Z,17.60
2018-06-16T03:12:22.212Z,17.40
2018-06-16T03:14:51.145Z,16.73
2018-06-16T03:17:20.076Z,16.10
2018-06-16T03:19:49.020Z,16.03
2018-06-16T03:22:18.632Z,15.93
2018-06-16T03:24:47.529Z,16.13
2018-06-16T03:27:16.476Z,16.70
2018-06-16T03:29:45.380Z,15.90
2018-06-16T03:32:14.334Z,15.90
2018-06-16T03:34:43.337Z,15.67
2018-06-16T03:37:12.257Z,15.13
2018-06-16T03:39:41.187Z,14.40
2018-06-16T03:42:10.146Z,15.40
2018-06-16T03:44:39.137Z,16.27
2018-06-16T03:47:08.096Z,14.60
2018-06-16T03:49:37.030Z,15.97
2018-06-16T03:52:05.985Z,15.03
2018-06-16T03:57:10.129Z,15.17
2018-06-16T03:59:39.073Z,15.23
2018-06-16T04:02:08.034Z,15.10
2018-06-16T04:04:37.003Z,14.60
2018-06-16T04:07:05.950Z,13.50
2018-06-16T04:09:34.855Z,14.37
2018-06-16T04:12:03.805Z,14.57
2018-06-16T04:14:32.752Z,14.73
2018-06-16T04:17:06.001Z,13.70
2018-06-16T04:19:34.917Z,14.07
2018-06-16T04:22:03.948Z,13.70
2018-06-16T04:24:32.860Z,13.83
2018-06-16T04:27:01.779Z,15.10
2018-06-16T04:29:30.748Z,14.10
2018-06-16T04:31:59.728Z,14.07
2018-06-16T04:34:28.588Z,14.20
2018-06-16T04:36:57.520Z,14.33
2018-06-16T04:39:26.469Z,13.53
2018-06-16T04:41:55.394Z,13.90
2018-06-16T04:44:24.347Z,14.30
2018-06-16T04:46:53.299Z,15.20
2018-06-16T04:49:22.217Z,14.43
2018-06-16T04:51:51.543Z,15.40
2018-06-16T04:54:20.500Z,16.97
2018-06-16T04:56:49.477Z,16.00
2018-06-16T04:59:18.445Z,15.63
2018-06-16T05:01:47.507Z,17.67
2018-06-16T05:04:16.420Z,16.43
2018-06-16T05:06:45.352Z,16.07
2018-06-16T05:09:14.296Z,18.80
2018-06-16T05:11:43.260Z,18.77
2018-06-16T05:14:12.192Z,18.37
2018-06-16T05:16:41.351Z,17.80
2018-06-16T05:19:10.270Z,19.47
2018-06-16T05:21:39.190Z,19.20
2018-06-16T05:24:08.276Z,20.80
2018-06-16T05:26:37.344Z,20.50
2018-06-16T05:29:06.298Z,21.77
2018-06-16T05:31:35.198Z,20.00
2018-06-16T05:34:10.685Z,20.87
2018-06-16T05:36:39.910Z,20.40
2018-06-16T05:39:10.026Z,20.87
2018-06-16T05:41:45.303Z,20.83
2018-06-16T05:44:14.467Z,21.07
2018-06-16T05:46:43.504Z,22.40
2018-06-16T05:49:12.578Z,21.60
2018-06-16T05:51:41.558Z,23.10
2018-06-16T05:54:10.505Z,23.23
2018-06-16T05:56:39.421Z,23.87
2018-06-16T05:59:08.360Z,24.37
2018-06-16T06:01:37.280Z,24.73
2018-06-16T06:04:06.288Z,25.63
2018-06-16T06:06:35.240Z,26.00
2018-06-16T06:09:06.049Z,23.83
2018-06-16T06:11:35.004Z,23.90
2018-06-16T06:14:04.121Z,24.80
2018-06-16T06:16:33.201Z,24.13
2018-06-16T06:19:02.122Z,27.27
2018-06-16T06:21:31.156Z,25.50
2018-06-16T06:24:00.152Z,29.47
2018-06-16T06:26:29.081Z,30.10
2018-06-16T06:28:57.998Z,28.30
2018-06-16T06:31:26.820Z,29.13
2018-06-16T06:33:55.973Z,30.67
2018-06-16T06:36:24.908Z,28.30
2018-06-16T06:38:53.870Z,29.70
2018-06-16T06:41:22.795Z,28.10
2018-06-16T06:43:51.904Z,29.70
2018-06-16T06:46:20.810Z,30.30
2018-06-16T06:48:49.744Z,30.60
2018-06-16T06:51:18.684Z,30.20
2018-06-16T06:53:47.628Z,29.90
2018-06-16T06:56:16.556Z,30.00
2018-06-16T06:58:45.494Z,29.87
2018-06-16T07:01:14.420Z,30.00
2018-06-16T07:03:49.884Z,30.20
2018-06-16T07:06:18.801Z,29.87
2018-06-16T07:08:47.741Z,30.60
2018-06-16T07:11:16.675Z,29.77
2018-06-16T07:13:45.580Z,30.17
2018-06-16T07:16:14.523Z,29.80
2018-06-16T07:18:43.493Z,32.30
2018-06-16T07:21:12.404Z,31.93
2018-06-16T07:23:41.330Z,31.60
2018-06-16T07:26:10.289Z,32.33
2018-06-16T07:28:39.234Z,30.60
2018-06-16T07:31:08.161Z,30.33
2018-06-16T07:33:37.128Z,31.60
2018-06-16T07:36:06.164Z,30.43
2018-06-16T07:38:35.024Z,31.17
2018-06-16T07:41:04.017Z,32.73
2018-06-16T07:43:32.933Z,30.47
2018-06-16T07:46:01.876Z,32.70
2018-06-16T07:48:30.803Z,30.77
2018-06-16T07:50:59.717Z,31.33
2018-06-16T07:53:28.829Z,31.83
2018-06-16T07:55:57.745Z,31.80
2018-06-16T07:58:26.680Z,31.23
2018-06-16T08:00:55.608Z,31.23
2018-06-16T08:03:24.548Z,29.37
2018-06-16T08:05:53.480Z,30.00
2018-06-16T08:08:22.501Z,30.77
2018-06-16T08:10:51.453Z,31.07
2018-06-16T08:13:20.401Z,29.10
2018-06-16T08:15:49.318Z,29.60
2018-06-16T08:18:18.218Z,30.03
2018-06-16T08:20:47.149Z,30.57
2018-06-16T08:23:16.064Z,30.67
2018-06-16T08:25:45.016Z,28.60
2018-06-16T08:28:14.136Z,29.07
2018-06-16T08:30:43.057Z,27.80
2018-06-16T08:33:12.028Z,28.70
2018-06-16T08:35:41.113Z,27.97
2018-06-16T08:38:10.357Z,29.63
2018-06-16T08:40:39.412Z,28.23
2018-06-16T08:43:09.504Z,26.63
2018-06-16T08:45:38.595Z,27.43
2018-06-16T08:48:07.566Z,24.13
2018-06-16T08:50:36.944Z,28.03
2018-06-16T08:53:06.386Z,27.70
2018-06-16T08:55:35.853Z,25.00
2018-06-16T08:58:05.191Z,27.70
2018-06-16T09:00:40.666Z,24.27
2018-06-16T09:03:09.582Z,24.90
2018-06-16T09:05:38.656Z,26.97
2018-06-16T09:08:08.025Z,24.90
2018-06-16T09:10:37.230Z,26.73
2018-06-16T09:13:06.200Z,27.10
2018-06-16T09:15:35.124Z,23.23
2018-06-16T09:18:04.243Z,25.50
2018-06-16T09:20:33.322Z,22.63
2018-06-16T09:23:02.220Z,23.17
2018-06-16T09:25:31.506Z,22.33
2018-06-16T09:28:00.591Z,19.20
2018-06-16T09:30:29.745Z,20.20
2018-06-16T09:32:58.713Z,19.60
2018-06-16T09:35:27.696Z,19.43
2018-06-16T09:37:56.751Z,20.90
2018-06-16T09:40:25.901Z,19.13
2018-06-16T09:42:54.870Z,19.80
2018-06-16T09:45:23.969Z,16.47
2018-06-16T09:47:52.996Z,18.13
2018-06-16T09:50:22.225Z,14.20
2018-06-16T09:52:51.557Z,16.20
2018-06-16T09:55:20.460Z,15.30
2018-06-16T09:57:49.500Z,14.70
2018-06-16T10:00:23.509Z,14.50
2018-06-16T10:02:52.881Z,13.30
2018-06-16T10:05:21.796Z,11.83
2018-06-16T10:07:50.794Z,13.57
2018-06-16T10:10:19.890Z,11.93
2018-06-16T10:12:48.833Z,12.53
2018-06-16T10:15:17.739Z,12.93
2018-06-16T10:17:46.794Z,13.80
2018-06-16T10:20:15.921Z,10.97
2018-06-16T10:22:45.169Z,6.90
2018-06-16T10:25:14.454Z,5.30
2018-06-16T10:27:43.734Z,6.60
2018-06-16T10:30:13.103Z,6.77
2018-06-16T10:32:42.633Z,5.60
2018-06-16T10:35:11.991Z,6.30
2018-06-16T10:37:41.023Z,5.50
2018-06-16T10:40:10.038Z,5.93
2018-06-16T10:42:39.158Z,5.60
2018-06-16T10:45:08.280Z,5.00
2018-06-16T10:47:37.282Z,4.07
2018-06-16T10:50:06.240Z,4.47
2018-06-16T10:52:35.364Z,4.13
2018-06-16T10:55:04.543Z,4.67
2018-06-16T10:57:33.994Z,4.60
2018-06-16T11:00:03.227Z,4.17
2018-06-16T11:02:32.380Z,5.17
2018-06-16T11:05:01.700Z,5.07
2018-06-16T11:10:24.241Z,5.73
2018-06-16T11:12:53.145Z,5.30
2018-06-16T11:15:22.257Z,5.20
2018-06-16T11:17:51.441Z,5.70
2018-06-16T11:20:20.819Z,7.10
2018-06-16T11:22:50.000Z,5.50
2018-06-16T11:25:19.079Z,4.93
2018-06-16T11:27:48.052Z,5.33
2018-06-16T11:30:17.089Z,5.63
2018-06-16T11:35:40.178Z,5.70
2018-06-16T11:38:12.228Z,5.80
2018-06-16T11:40:41.167Z,5.90
2018-06-16T11:43:10.113Z,5.43
2018-06-16T11:45:39.059Z,6.70
2018-06-16T11:48:08.033Z,5.90
2018-06-16T11:50:36.944Z,5.47
2018-06-16T11:53:05.873Z,5.80
2018-06-16T11:55:34.768Z,6.80
2018-06-16T11:58:03.707Z,6.50
2018-06-16T12:00:32.641Z,6.40
2018-06-16T12:03:01.532Z,6.33
2018-06-16T12:05:30.444Z,5.03
2018-06-16T12:07:59.344Z,5.17
2018-06-16T12:10:28.328Z,4.40
2018-06-16T12:12:57.264Z,5.23
2018-06-16T12:15:26.220Z,5.10
2018-06-16T12:17:55.365Z,4.43
2018-06-16T12:20:24.321Z,4.83
2018-06-16T12:22:53.228Z,5.27
2018-06-16T12:25:22.368Z,5.20
2018-06-16T12:27:51.796Z,5.10
2018-06-16T12:30:20.714Z,5.27
2018-06-16T12:32:49.650Z,4.30
2018-06-16T12:35:18.644Z,4.40
2018-06-16T12:37:47.646Z,3.27
2018-06-16T12:40:16.533Z,3.73
2018-06-16T12:42:45.436Z,3.13
2018-06-16T12:45:14.380Z,3.70
2018-06-16T12:47:43.366Z,4.17
2018-06-16T12:50:12.328Z,3.50
2018-06-16T12:52:41.015Z,4.00
2018-06-16T12:55:09.873Z,3.43
2018-06-16T12:57:38.921Z,3.73
2018-06-16T13:00:07.857Z,3.47
2018-06-16T13:02:37.039Z,4.10
2018-06-16T13:05:06.128Z,3.50
2018-06-16T13:07:35.132Z,3.37
2018-06-16T13:10:04.090Z,2.90
2018-06-16T13:12:33.028Z,3.77
2018-06-16T13:15:01.981Z,3.20
2018-06-16T13:17:30.868Z,3.50
2018-06-16T13:19:59.820Z,3.27
2018-06-16T13:22:28.742Z,3.47
2018-06-16T13:24:57.745Z,3.50
2018-06-16T13:27:26.803Z,4.10
2018-06-16T13:29:55.732Z,3.63
2018-06-16T13:32:24.653Z,2.80
2018-06-16T13:34:53.677Z,3.60
2018-06-16T13:37:22.813Z,3.27
2018-06-16T13:39:52.044Z,3.90
2018-06-16T13:42:20.988Z,4.03
2018-06-16T13:44:49.940Z,3.30
2018-06-16T13:47:18.843Z,3.83
2018-06-16T13:49:47.754Z,3.13
2018-06-16T13:52:16.717Z,3.40
2018-06-16T13:54:46.747Z,3.40
2018-06-16T13:57:15.716Z,3.70
2018-06-16T13:59:44.623Z,4.10
2018-06-16T14:02:14.621Z,3.03
2018-06-16T14:04:43.644Z,3.07
2018-06-16T14:07:12.634Z,3.20
2018-06-16T14:09:41.786Z,3.13
2018-06-16T14:12:10.854Z,2.87
2018-06-16T14:14:39.815Z,2.43
2018-06-16T14:17:09.741Z,2.40
2018-06-16T14:19:38.934Z,2.37
2018-06-16T14:22:07.889Z,2.20
2018-06-16T14:24:36.926Z,2.90
2018-06-16T14:27:06.240Z,2.90
2018-06-16T14:29:35.444Z,2.63
2018-06-16T14:32:04.658Z,2.80
2018-06-16T14:34:33.347Z,3.17
2018-06-16T14:37:02.091Z,2.70
2018-06-16T14:39:30.906Z,3.13
2018-06-16T14:42:00.680Z,2.60
2018-06-16T14:44:29.781Z,3.13
2018-06-16T14:46:58.778Z,2.70
2018-06-16T14:49:27.685Z,3.07
2018-06-16T14:51:56.623Z,2.33
2018-06-16T14:57:00.748Z,3.23
2018-06-16T14:59:29.724Z,3.17
2018-06-16T15:01:58.641Z,3.00
2018-06-16T15:04:27.861Z,2.70
2018-06-16T15:06:57.036Z,2.50
2018-06-16T15:09:26.184Z,2.97
2018-06-16T15:11:55.126Z,3.10
2018-06-16T15:14:24.148Z,2.73
2018-06-16T15:16:53.086Z,3.40
2018-06-16T15:19:21.997Z,2.80
2018-06-16T15:21:50.922Z,3.20
2018-06-16T15:24:19.925Z,3.23
2018-06-16T15:26:48.837Z,3.20
2018-06-16T15:29:18.024Z,3.40
2018-06-16T15:31:47.071Z,3.50
2018-06-16T15:34:16.132Z,3.00
2018-06-16T15:36:45.144Z,3.63
2018-06-16T15:39:14.123Z,3.10
2018-06-16T15:41:43.146Z,4.03
2018-06-16T15:44:12.078Z,3.70
2018-06-16T15:46:44.305Z,3.60
2018-06-16T15:49:13.353Z,3.60
2018-06-16T15:51:42.361Z,3.63
2018-06-16T15:54:11.292Z,3.17
2018-06-16T15:56:40.869Z,3.90
2018-06-16T15:59:09.783Z,3.57
2018-06-16T16:01:38.730Z,3.87
2018-06-16T16:04:08.714Z,4.10
2018-06-16T16:06:37.667Z,3.37
2018-06-16T16:09:07.104Z,3.73
2018-06-16T16:11:36.544Z,3.53
2018-06-16T16:14:05.999Z,3.90
2018-06-16T16:16:35.779Z,4.17
2018-06-16T16:19:04.868Z,4.53
2018-06-16T16:21:33.957Z,4.70
2018-06-16T16:24:03.105Z,4.53
2018-06-16T16:26:32.187Z,5.03
2018-06-16T16:29:01.277Z,4.23
2018-06-16T16:31:30.232Z,5.07
2018-06-16T16:33:59.178Z,4.80
2018-06-16T16:36:28.244Z,4.80
2018-06-16T16:38:57.397Z,5.57
2018-06-16T16:41:26.365Z,4.87
2018-06-16T16:43:55.308Z,4.57
2018-06-16T16:46:24.223Z,4.23
2018-06-16T16:48:53.184Z,4.27
2018-06-16T16:51:22.483Z,4.57
2018-06-16T16:53:51.437Z,5.60
2018-06-16T16:56:20.372Z,4.50
2018-06-16T16:58:49.462Z,4.33
2018-06-16T17:01:18.404Z,4.60
2018-06-16T17:03:47.369Z,5.33
2018-06-16T17:06:16.324Z,5.80
2018-06-16T17:08:45.304Z,6.80
2018-06-16T17:11:14.275Z,6.03
2018-06-16T17:13:43.253Z,6.33
2018-06-16T17:16:12.221Z,6.23
2018-06-16T17:18:41.205Z,6.17
2018-06-16T17:21:11.185Z,6.70
2018-06-16T17:23:40.173Z,7.37
2018-06-16T17:26:09.138Z,6.50
2018-06-16T17:28:38.229Z,8.10
2018-06-16T17:31:07.206Z,7.57
2018-06-16T17:33:36.389Z,8.93
2018-06-16T17:36:05.473Z,9.10
2018-06-16T17:38:34.460Z,8.23
2018-06-16T17:41:03.409Z,8.67
2018-06-16T17:43:32.441Z,8.13
2018-06-16T17:46:01.326Z,7.60
2018-06-16T17:48:30.287Z,7.73
2018-06-16T17:50:59.340Z,7.77
2018-06-16T17:53:28.361Z,8.30
2018-06-16T17:55:57.386Z,8.33
2018-06-16T17:58:26.398Z,11.83
2018-06-16T18:00:55.367Z,11.70
2018-06-16T18:03:24.382Z,12.57
2018-06-16T18:05:53.308Z,13.07
2018-06-16T18:08:22.336Z,12.57
2018-06-16T18:10:51.362Z,13.10
2018-06-16T18:13:20.321Z,13.57
2018-06-16T18:15:49.235Z,13.50
2018-06-16T18:18:18.221Z,13.23
2018-06-16T18:20:47.201Z,14.73
2018-06-16T18:23:16.166Z,14.97
2018-06-16T18:25:45.112Z,13.07
2018-06-16T18:28:14.220Z,14.57
2018-06-16T18:30:43.280Z,15.17
2018-06-16T18:33:12.265Z,16.40
2018-06-16T18:35:42.079Z,14.77
2018-06-16T18:38:11.074Z,14.67
2018-06-16T18:40:40.192Z,15.70
2018-06-16T18:43:09.264Z,15.20
2018-06-16T18:45:38.211Z,15.20
2018-06-16T18:48:08.513Z,15.67
2018-06-16T18:50:37.519Z,14.73
2018-06-16T18:53:06.497Z,15.80
2018-06-16T18:55:35.521Z,15.67
2018-06-16T18:58:04.538Z,14.63
2018-06-16T19:00:33.554Z,15.37
2018-06-16T19:03:02.633Z,15.47
2018-06-16T19:05:32.110Z,16.03
2018-06-16T19:08:01.042Z,14.93
2018-06-16T19:10:30.003Z,15.00
2018-06-16T19:12:58.940Z,15.03
2018-06-16T19:15:27.892Z,15.33
2018-06-16T19:17:56.874Z,13.13
2018-06-16T19:20:26.272Z,14.60
2018-06-16T19:22:55.523Z,15.10
2018-06-16T19:25:24.585Z,15.30
2018-06-16T19:27:53.943Z,13.73
2018-06-16T19:30:23.241Z,13.23
2018-06-16T19:32:53.519Z,13.70
2018-06-16T19:35:22.669Z,14.30
2018-06-16T19:37:51.967Z,13.07
2018-06-16T19:40:20.899Z,12.40
2018-06-16T19:42:50.021Z,13.87
2018-06-16T19:45:19.085Z,12.70
2018-06-16T19:47:48.014Z,12.63
2018-06-16T19:50:16.932Z,12.43
2018-06-16T19:52:45.882Z,12.67
2018-06-16T19:55:14.860Z,12.10
2018-06-16T19:57:43.892Z,12.67
2018-06-16T20:00:12.828Z,12.53
2018-06-16T20:02:41.820Z,12.03
2018-06-16T20:05:10.764Z,12.60
2018-06-16T20:07:39.686Z,12.00
2018-06-16T20:10:08.627Z,11.63
2018-06-16T20:12:37.547Z,11.27
2018-06-16T20:15:06.497Z,12.17
2018-06-16T20:17:35.437Z,12.80
2018-06-16T20:20:06.306Z,13.57
2018-06-16T20:22:35.310Z,10.97
2018-06-16T20:25:04.335Z,10.07
2018-06-16T20:27:33.264Z,12.17
2018-06-16T20:30:02.236Z,11.60
2018-06-16T20:32:31.190Z,10.47
2018-06-16T20:35:00.167Z,11.00
2018-06-16T20:37:29.131Z,10.17
2018-06-16T20:39:58.071Z,9.50
2018-06-16T20:42:27.041Z,10.53
2018-06-16T20:44:55.982Z,10.20
2018-06-16T20:47:25.034Z,10.53
2018-06-16T20:49:53.997Z,10.73
2018-06-16T20:52:22.981Z,10.20
2018-06-16T20:54:52.049Z,10.77
2018-06-16T20:57:21.007Z,10.80
2018-06-16T20:59:50.040Z,10.50
2018-06-16T21:02:19.504Z,13.67
2018-06-16T21:04:48.434Z,13.70
2018-06-16T21:07:17.388Z,13.00
2018-06-16T21:09:46.635Z,12.20
2018-06-16T21:12:15.588Z,11.60
2018-06-16T21:14:45.504Z,11.43
2018-06-16T21:17:14.692Z,10.53
2018-06-16T21:19:43.612Z,9.87
2018-06-16T21:22:12.551Z,11.90
2018-06-16T21:24:41.550Z,10.70
2018-06-16T21:27:10.468Z,10.40
2018-06-16T21:29:39.485Z,10.20
2018-06-16T21:32:08.454Z,9.30
2018-06-16T21:34:37.627Z,11.30
2018-06-16T21:37:06.944Z,11.20
2018-06-16T21:39:35.868Z,9.70
2018-06-16T21:42:04.823Z,9.67
2018-06-16T21:44:33.788Z,9.93
2018-06-16T21:47:02.699Z,9.73
2018-06-16T21:49:31.916Z,10.60
2018-06-16T21:52:00.875Z,9.63
2018-06-16T21:54:29.847Z,8.90
2018-06-16T21:56:58.744Z,9.90
2018-06-16T21:59:27.686Z,9.50
2018-06-16T22:01:56.703Z,9.10
2018-06-16T22:04:25.666Z,9.10
2018-06-16T22:06:54.641Z,10.20
2018-06-16T22:09:23.574Z,10.47
2018-06-16T22:11:52.533Z,10.73
2018-06-16T22:14:21.537Z,10.30
2018-06-16T22:16:50.464Z,10.50
2018-06-16T22:19:19.457Z,10.60
2018-06-16T22:21:49.028Z,10.37
2018-06-16T22:24:18.622Z,11.27
2018-06-16T22:26:47.584Z,11.80
2018-06-16T22:29:16.793Z,11.50
2018-06-16T22:31:45.828Z,11.80
2018-06-16T22:34:14.731Z,12.80
2018-06-16T22:36:43.656Z,10.60
2018-06-16T22:39:13.321Z,11.27
2018-06-16T22:41:42.475Z,11.33
2018-06-16T22:44:11.412Z,10.63
2018-06-16T22:46:40.559Z,10.97
2018-06-16T22:49:09.470Z,10.73
2018-06-16T22:51:38.464Z,8.90
2018-06-16T22:54:07.521Z,11.17
2018-06-16T22:56:36.439Z,10.80
2018-06-16T22:59:05.423Z,10.47
2018-06-16T23:01:34.345Z,10.10
2018-06-16T23:04:03.500Z,9.90
2018-06-16T23:06:32.442Z,10.20
2018-06-16T23:09:01.378Z,12.30
2018-06-16T23:11:30.296Z,10.87
2018-06-16T23:13:59.233Z,10.40
2018-06-16T23:16:29.405Z,10.00
2018-06-16T23:18:58.346Z,11.37
2018-06-16T23:21:27.295Z,11.30
2018-06-16T23:23:56.252Z,11.70
2018-06-16T23:26:25.167Z,10.40
2018-06-16T23:28:54.080Z,10.03
2018-06-16T23:31:22.977Z,9.63
2018-06-16T23:33:51.943Z,8.73
2018-06-16T23:36:20.830Z,7.10
2018-06-16T23:38:49.792Z,8.10
2018-06-16T23:41:18.736Z,7.23
2018-06-16T23:43:47.700Z,6.50
2018-06-16T23:46:16.592Z,7.17
2018-06-16T23:48:45.529Z,6.60
2018-06-16T23:51:14.465Z,5.73
2018-06-16T23:53:43.420Z,6.73
2018-06-16T23:56:12.341Z,6.67
2018-06-16T23:58:41.251Z,5.80
